Pgc Ikaros — C6TN6 — position and weather

sailwx.info

Track history (hours):
 
Tides and Currents Weather Stations Pressure Air Temp Water Temp Dewpoint Dewpoint Depression Visibility Wind Speed Wind Dir Waves Ship Positions

Pgc Ikaros

Last reported at 2018-Apr-23 20:02 UTC. Time now 2018-Apr-24 10:51 UTC.
Position N 29°45' W 095°06'.

Length 228 m; draft 10.6 m.

Type: Tanker. MMSI: 311707000.

Date/timePositionNaut miles runAvg speedWind from/ knotsBaromVisibWave heightAir tempDewpointWater temp
2018-Apr-23 20:02N 29°45' W 095°06'0 0.1
2018-Apr-23 19:59N 29°45' W 095°06'0 0.2
2018-Apr-23 19:30N 29°45' W 095°06'2 3.6
2018-Apr-23 19:00N 29°45' W 095°04'3 6.4
2018-Apr-23 18:30N 29°43' W 095°01'4 7.9
2018-Apr-23 18:00N 29°40' W 094°58'510.4
2018-Apr-23 17:30N 29°35' W 094°56'611.2
2018-Apr-23 17:00N 29°30' W 094°52'612.4
2018-Apr-23 16:30N 29°25' W 094°49'15 6.4
2018-Apr-23 14:14N 29°12' W 094°41'0 0.1
2018-Apr-23 10:06N 29°12' W 094°41'0 0.1
2018-Apr-23 09:57N 29°12' W 094°41'0 0.0
2018-Apr-23 09:27N 29°12' W 094°41'0 0.0
2018-Apr-23 08:57N 29°12' W 094°41'0 0.0
2018-Apr-23 05:51N 29°12' W 094°41'0 0.0
2018-Apr-23 05:18N 29°12' W 094°41'0 0.0
2018-Apr-22 19:45N 29°12' W 094°42'0 0.1
2018-Apr-22 19:21N 29°12' W 094°41'0 0.0
2018-Apr-22 18:51N 29°12' W 094°41'0 0.0
2018-Apr-22 18:27N 29°12' W 094°41'0 0.0
2018-Apr-22 17:42N 29°12' W 094°42'0 0.0
2018-Apr-22 17:15N 29°12' W 094°42'0 0.0
2018-Apr-22 16:45N 29°12' W 094°42'0 0.0
2018-Apr-22 16:21N 29°12' W 094°42'0 0.0
2018-Apr-22 15:57N 29°12' W 094°42'0 0.0
2018-Apr-22 15:30N 29°12' W 094°42'0 0.0
2018-Apr-22 14:30N 29°12' W 094°42'0 0.0
2018-Apr-22 13:51N 29°12' W 094°42'0 0.0
2018-Apr-22 13:27N 29°12' W 094°42'0 0.0
2018-Apr-22 05:54N 29°12' W 094°42'0 0.0
2018-Apr-22 03:06N 29°12' W 094°42'5 0.8
2018-Apr-21 21:06N 29°09' W 094°37'  
Track history (hours):
 
Tides and Currents Weather Stations Pressure Air Temp Water Temp Dewpoint Dewpoint Depression Visibility Wind Speed Wind Dir Waves Ship Positions

Pgc Ikaros

Last reported at 2018-Apr-23 20:02 UTC. Time now 2018-Apr-24 10:51 UTC.
Position N 29°45' W 095°06'.

Length 228 m; draft 10.6 m.

Type: Tanker. MMSI: 311707000.

Date/timePositionNaut miles runAvg speedWind from/ knotsBaromVisibWave heightAir tempDewpointWater temp
2018-Apr-23 20:02N 29°45' W 095°06'0 0.1
2018-Apr-23 19:59N 29°45' W 095°06'0 0.2
2018-Apr-23 19:30N 29°45' W 095°06'2 3.6
2018-Apr-23 19:00N 29°45' W 095°04'3 6.4
2018-Apr-23 18:30N 29°43' W 095°01'4 7.9
2018-Apr-23 18:00N 29°40' W 094°58'510.4
2018-Apr-23 17:30N 29°35' W 094°56'611.2
2018-Apr-23 17:00N 29°30' W 094°52'612.4
2018-Apr-23 16:30N 29°25' W 094°49'15 6.4
2018-Apr-23 14:14N 29°12' W 094°41'0 0.1
2018-Apr-23 10:06N 29°12' W 094°41'0 0.1
2018-Apr-23 09:57N 29°12' W 094°41'0 0.0
2018-Apr-23 09:27N 29°12' W 094°41'0 0.0
2018-Apr-23 08:57N 29°12' W 094°41'0 0.0
2018-Apr-23 05:51N 29°12' W 094°41'0 0.0
2018-Apr-23 05:18N 29°12' W 094°41'0 0.0
2018-Apr-22 19:45N 29°12' W 094°42'0 0.1
2018-Apr-22 19:21N 29°12' W 094°41'0 0.0
2018-Apr-22 18:51N 29°12' W 094°41'0 0.0
2018-Apr-22 18:27N 29°12' W 094°41'0 0.0
2018-Apr-22 17:42N 29°12' W 094°42'0 0.0
2018-Apr-22 17:15N 29°12' W 094°42'0 0.0
2018-Apr-22 16:45N 29°12' W 094°42'0 0.0
2018-Apr-22 16:21N 29°12' W 094°42'0 0.0
2018-Apr-22 15:57N 29°12' W 094°42'0 0.0
2018-Apr-22 15:30N 29°12' W 094°42'0 0.0
2018-Apr-22 14:30N 29°12' W 094°42'0 0.0
2018-Apr-22 13:51N 29°12' W 094°42'0 0.0
2018-Apr-22 13:27N 29°12' W 094°42'0 0.0
2018-Apr-22 05:54N 29°12' W 094°42'0 0.0
2018-Apr-22 03:06N 29°12' W 094°42'5 0.8
2018-Apr-21 21:06N 29°09' W 094°37'  

Dump ship's entire track history